createdAt,value
2023-01-15T04:15:14.326Z,101184.89
2023-01-15T04:16:21.351Z,101185.63
2023-01-15T04:17:25.388Z,101136.20
2023-01-15T04:18:29.459Z,101172.17
2023-01-15T04:19:33.504Z,101171.22
2023-01-15T04:20:37.542Z,101169.41
2023-01-15T04:21:41.497Z,101165.77
2023-01-15T04:22:48.043Z,101164.81
2023-01-15T04:23:52.742Z,101154.27
2023-01-15T04:24:56.839Z,101154.27
2023-01-15T04:26:00.759Z,101151.53
2023-01-15T04:27:07.692Z,101141.87
2023-01-15T04:28:13.386Z,101142.72
2023-01-15T04:29:17.501Z,101124.27
2023-01-15T04:30:23.605Z,101119.93
2023-01-15T04:31:27.482Z,101102.27
2023-01-15T04:32:31.439Z,101085.63
2023-01-15T04:33:39.357Z,101063.66
2023-01-15T04:34:43.286Z,101051.45
2023-01-15T04:35:47.227Z,100999.66
2023-01-15T04:36:51.203Z,100979.53
2023-01-15T04:37:59.512Z,100979.53
2023-01-15T04:39:05.089Z,100954.93
2023-01-15T04:40:11.892Z,100923.25
2023-01-15T04:41:23.926Z,100917.88
2023-01-15T04:42:24.306Z,100903.87
2023-01-15T04:43:28.304Z,100891.56
2023-01-15T04:44:36.687Z,100879.26
2023-01-15T04:45:40.361Z,100879.26
2023-01-15T05:00:12.897Z,100789.06
2023-01-15T05:01:20.481Z,100805.39
2023-01-15T05:02:25.999Z,100805.39
2023-01-15T05:03:31.253Z,100803.57
2023-01-15T05:06:05.522Z,100805.08
2023-01-15T05:19:19.133Z,100789.67
2023-01-15T05:20:27.717Z,100785.27
2023-01-15T05:21:34.114Z,100785.27
2023-01-15T05:22:40.578Z,100793.05
2023-01-15T05:26:13.019Z,100780.47
2023-01-15T05:27:17.477Z,100777.73
2023-01-15T05:28:23.447Z,100777.73
2023-01-15T05:29:28.825Z,100780.20
2023-01-15T05:30:35.350Z,100775.79
2023-01-15T05:31:40.338Z,100776.55
2023-01-15T05:32:44.427Z,100773.84
2023-01-15T05:33:49.078Z,100780.81
2023-01-15T05:34:55.215Z,100780.81
2023-01-15T05:36:07.483Z,100779.84
2023-01-15T05:37:11.395Z,100769.39
2023-01-15T05:38:15.426Z,100764.98
2023-01-15T05:39:19.359Z,100760.58
2023-01-15T05:40:23.418Z,100765.79
2023-01-15T05:41:27.543Z,100762.23
2023-01-15T05:42:31.494Z,100765.67
2023-01-15T05:43:35.472Z,100762.11
2023-01-15T05:44:39.650Z,100762.07
2023-01-15T05:45:43.612Z,100765.67
2023-01-15T05:46:49.225Z,100754.30
2023-01-15T05:47:55.972Z,100753.36
2023-01-15T05:49:06.476Z,100753.36
2023-01-15T05:50:14.166Z,100760.25
2023-01-15T05:51:30.039Z,100760.25
2023-01-15T05:52:31.972Z,100759.31
2023-01-15T05:53:37.623Z,100764.58
2023-01-15T05:54:41.745Z,100761.95
2023-01-15T05:55:47.695Z,100760.25
2023-01-15T05:56:53.573Z,100758.39
2023-01-15T05:57:58.898Z,100761.02
2023-01-15T05:59:02.909Z,100761.02
2023-01-15T06:00:08.311Z,100754.05
2023-01-15T06:01:12.741Z,100749.59
2023-01-15T06:02:18.394Z,100749.59
2023-01-15T06:03:26.780Z,100740.89
2023-01-15T06:04:30.792Z,100740.84
2023-01-15T06:05:34.811Z,100735.59
2023-01-15T06:06:40.163Z,100736.44
2023-01-15T06:07:44.094Z,100715.91
2023-01-15T06:08:49.667Z,100739.88
2023-01-15T06:09:53.699Z,100738.14
2023-01-15T06:10:57.854Z,100736.44
2023-01-15T06:12:01.815Z,100739.88
2023-01-15T06:13:07.337Z,100739.88
2023-01-15T06:14:13.446Z,100739.88
2023-01-15T06:15:18.834Z,100739.88
2023-01-15T06:16:23.043Z,100742.43
2023-01-15T06:17:27.153Z,100745.91
2023-01-15T06:18:31.223Z,100740.73
2023-01-15T12:49:34.968Z,100407.71
2023-01-15T12:50:43.576Z,100413.83
2023-01-15T12:51:54.911Z,100406.86
2023-01-15T12:53:22.836Z,100406.86
2023-01-15T12:56:15.635Z,100404.38
2023-01-15T12:57:47.519Z,100402.64
2023-01-15T12:59:16.571Z,100407.16
2023-01-15T13:02:26.794Z,100400.47
2023-01-15T13:20:44.430Z,100429.96
2023-01-15T13:35:43.183Z,100375.57
2023-01-15T13:38:10.405Z,100384.11
2023-01-15T13:43:07.463Z,100390.78
2023-01-15T14:01:08.844Z,100338.95
2023-01-15T14:02:32.393Z,100331.69
2023-01-15T14:05:22.412Z,100331.69
2023-01-15T14:05:39.146Z,100355.91
2023-01-15T14:06:14.555Z,100340.95
